sensor_id;sensor_type;location;lat;lon;timestamp;pressure;altitude;pressure_sealevel;temperature;humidity
74722;BME280;63470;49.826;6.740;2023-05-15T00:01:00;99975.91;;;10.24;58.86
74722;BME280;63470;49.826;6.740;2023-05-15T00:03:31;99973.42;;;10.16;58.92
74722;BME280;63470;49.826;6.740;2023-05-15T00:06:01;99973.38;;;10.07;58.95
74722;BME280;63470;49.826;6.740;2023-05-15T00:08:32;99976.48;;;9.99;59.05
74722;BME280;63470;49.826;6.740;2023-05-15T00:11:05;99976.06;;;9.94;59.06
74722;BME280;63470;49.826;6.740;2023-05-15T00:13:33;99978.61;;;9.91;59.07
74722;BME280;63470;49.826;6.740;2023-05-15T00:16:06;99977.14;;;9.85;59.07
74722;BME280;63470;49.826;6.740;2023-05-15T00:18:34;99976.94;;;9.83;59.00
74722;BME280;63470;49.826;6.740;2023-05-15T00:21:05;99974.56;;;9.76;59.05
74722;BME280;63470;49.826;6.740;2023-05-15T00:23:35;99970.14;;;9.76;58.96
74722;BME280;63470;49.826;6.740;2023-05-15T00:26:06;99971.30;;;9.75;58.94
74722;BME280;63470;49.826;6.740;2023-05-15T00:28:37;99973.39;;;9.72;58.96
74722;BME280;63470;49.826;6.740;2023-05-15T00:31:08;99969.16;;;9.74;59.02
74722;BME280;63470;49.826;6.740;2023-05-15T00:33:41;99966.12;;;9.79;58.88
74722;BME280;63470;49.826;6.740;2023-05-15T00:36:08;99978.45;;;9.81;58.80
74722;BME280;63470;49.826;6.740;2023-05-15T00:38:39;99979.31;;;9.79;58.82
74722;BME280;63470;49.826;6.740;2023-05-15T00:41:10;99980.79;;;9.80;58.71
74722;BME280;63470;49.826;6.740;2023-05-15T00:43:41;99983.58;;;9.74;58.79
74722;BME280;63470;49.826;6.740;2023-05-15T00:46:11;99980.83;;;9.67;58.88
74722;BME280;63470;49.826;6.740;2023-05-15T00:48:42;99983.78;;;9.63;58.92
74722;BME280;63470;49.826;6.740;2023-05-15T00:51:11;99984.41;;;9.55;59.02
74722;BME280;63470;49.826;6.740;2023-05-15T00:53:42;99982.33;;;9.51;59.07
74722;BME280;63470;49.826;6.740;2023-05-15T00:56:14;99983.61;;;9.52;59.01
74722;BME280;63470;49.826;6.740;2023-05-15T00:58:44;99977.41;;;9.49;59.00
74722;BME280;63470;49.826;6.740;2023-05-15T01:01:15;99975.84;;;9.48;59.04
74722;BME280;63470;49.826;6.740;2023-05-15T01:03:44;99971.56;;;9.48;59.00
74722;BME280;63470;49.826;6.740;2023-05-15T01:06:14;99975.77;;;9.49;58.94
74722;BME280;63470;49.826;6.740;2023-05-15T01:08:45;99976.20;;;9.46;58.95
74722;BME280;63470;49.826;6.740;2023-05-15T01:11:16;99974.88;;;9.42;58.92
74722;BME280;63470;49.826;6.740;2023-05-15T01:13:48;99970.27;;;9.36;59.03
74722;BME280;63470;49.826;6.740;2023-05-15T01:16:16;99968.33;;;9.34;59.03
74722;BME280;63470;49.826;6.740;2023-05-15T01:18:46;99965.06;;;9.31;59.08
74722;BME280;63470;49.826;6.740;2023-05-15T01:24:10;99968.01;;;9.28;58.99
74722;BME280;63470;49.826;6.740;2023-05-15T01:26:33;99970.09;;;9.25;58.98
74722;BME280;63470;49.826;6.740;2023-05-15T01:28:51;99971.11;;;9.23;59.01
74722;BME280;63470;49.826;6.740;2023-05-15T01:31:21;99967.02;;;9.22;59.03
74722;BME280;63470;49.826;6.740;2023-05-15T01:33:53;99965.49;;;9.20;59.03
74722;BME280;63470;49.826;6.740;2023-05-15T01:36:29;99963.41;;;9.16;59.13
74722;BME280;63470;49.826;6.740;2023-05-15T01:38:51;99960.34;;;9.12;59.20
74722;BME280;63470;49.826;6.740;2023-05-15T01:41:22;99956.50;;;9.10;59.25
74722;BME280;63470;49.826;6.740;2023-05-15T01:43:55;99953.52;;;9.12;59.17
74722;BME280;63470;49.826;6.740;2023-05-15T01:46:25;99957.27;;;9.15;59.03
74722;BME280;63470;49.826;6.740;2023-05-15T01:48:51;99962.26;;;9.15;58.95
74722;BME280;63470;49.826;6.740;2023-05-15T01:51:25;99964.23;;;9.16;58.99
74722;BME280;63470;49.826;6.740;2023-05-15T01:53:52;99963.38;;;9.18;58.93
74722;BME280;63470;49.826;6.740;2023-05-15T01:56:23;99962.39;;;9.17;58.93
74722;BME280;63470;49.826;6.740;2023-05-15T01:58:54;99963.16;;;9.17;58.95
74722;BME280;63470;49.826;6.740;2023-05-15T02:01:26;99968.35;;;9.16;58.99
74722;BME280;63470;49.826;6.740;2023-05-15T02:03:55;99969.58;;;9.21;58.97
74722;BME280;63470;49.826;6.740;2023-05-15T02:06:26;99967.95;;;9.32;58.81
74722;BME280;63470;49.826;6.740;2023-05-15T02:08:57;99964.18;;;9.37;58.76
74722;BME280;63470;49.826;6.740;2023-05-15T02:11:27;99966.70;;;9.38;58.73
74722;BME280;63470;49.826;6.740;2023-05-15T02:13:57;99965.58;;;9.37;58.78
74722;BME280;63470;49.826;6.740;2023-05-15T02:16:27;99965.41;;;9.36;58.83
74722;BME280;63470;49.826;6.740;2023-05-15T02:18:58;99966.89;;;9.37;58.85
74722;BME280;63470;49.826;6.740;2023-05-15T02:21:28;99963.44;;;9.36;58.93
74722;BME280;63470;49.826;6.740;2023-05-15T02:23:59;99965.28;;;9.35;59.04
74722;BME280;63470;49.826;6.740;2023-05-15T02:29:12;99964.64;;;9.39;58.99
74722;BME280;63470;49.826;6.740;2023-05-15T02:34:13;99961.22;;;9.46;58.88
74722;BME280;63470;49.826;6.740;2023-05-15T02:36:32;99960.99;;;9.49;58.80
74722;BME280;63470;49.826;6.740;2023-05-15T02:39:01;99960.61;;;9.49;58.79
74722;BME280;63470;49.826;6.740;2023-05-15T02:41:33;99962.54;;;9.46;58.89
74722;BME280;63470;49.826;6.740;2023-05-15T02:44:02;99961.83;;;9.45;58.92
74722;BME280;63470;49.826;6.740;2023-05-15T02:46:33;99962.57;;;9.44;58.96
74722;BME280;63470;49.826;6.740;2023-05-15T02:49:02;99965.38;;;9.44;58.95
74722;BME280;63470;49.826;6.740;2023-05-15T02:51:33;99967.27;;;9.44;58.86
74722;BME280;63470;49.826;6.740;2023-05-15T02:54:04;99964.64;;;9.38;58.85
74722;BME280;63470;49.826;6.740;2023-05-15T02:56:34;99964.52;;;9.30;58.95
74722;BME280;63470;49.826;6.740;2023-05-15T02:59:05;99959.26;;;9.24;59.02
74722;BME280;63470;49.826;6.740;2023-05-15T03:01:35;99955.37;;;9.21;59.06
74722;BME280;63470;49.826;6.740;2023-05-15T03:04:06;99955.54;;;9.14;59.09
74722;BME280;63470;49.826;6.740;2023-05-15T03:06:36;99963.97;;;9.06;59.26
74722;BME280;63470;49.826;6.740;2023-05-15T03:09:07;99958.67;;;9.02;59.33
74722;BME280;63470;49.826;6.740;2023-05-15T03:11:38;99953.79;;;9.03;59.27
74722;BME280;63470;49.826;6.740;2023-05-15T03:14:08;99957.94;;;9.01;59.21
74722;BME280;63470;49.826;6.740;2023-05-15T03:16:39;99953.55;;;8.97;59.28
74722;BME280;63470;49.826;6.740;2023-05-15T03:19:09;99955.50;;;8.94;59.31
74722;BME280;63470;49.826;6.740;2023-05-15T03:21:39;99955.44;;;8.92;59.30
74722;BME280;63470;49.826;6.740;2023-05-15T03:24:12;99955.28;;;8.92;59.23
74722;BME280;63470;49.826;6.740;2023-05-15T03:26:43;99956.43;;;8.91;59.16
74722;BME280;63470;49.826;6.740;2023-05-15T03:29:11;99959.94;;;8.87;59.22
74722;BME280;63470;49.826;6.740;2023-05-15T03:31:41;99958.32;;;8.85;59.23
74722;BME280;63470;49.826;6.740;2023-05-15T03:34:12;99954.95;;;8.80;59.25
74722;BME280;63470;49.826;6.740;2023-05-15T03:36:43;99957.91;;;8.73;59.38
74722;BME280;63470;49.826;6.740;2023-05-15T03:39:13;99957.58;;;8.68;59.46
74722;BME280;63470;49.826;6.740;2023-05-15T03:41:43;99956.80;;;8.64;59.48
74722;BME280;63470;49.826;6.740;2023-05-15T03:44:14;99956.22;;;8.58;59.53
74722;BME280;63470;49.826;6.740;2023-05-15T03:46:44;99956.25;;;8.55;59.54
74722;BME280;63470;49.826;6.740;2023-05-15T03:49:15;99959.70;;;8.55;59.45
74722;BME280;63470;49.826;6.740;2023-05-15T03:51:45;99961.94;;;8.53;59.46
74722;BME280;63470;49.826;6.740;2023-05-15T03:54:16;99960.45;;;8.48;59.53
74722;BME280;63470;49.826;6.740;2023-05-15T03:56:46;99958.22;;;8.41;59.67
74722;BME280;63470;49.826;6.740;2023-05-15T03:59:17;99956.55;;;8.37;59.77
74722;BME280;63470;49.826;6.740;2023-05-15T04:01:50;99952.81;;;8.34;59.82
74722;BME280;63470;49.826;6.740;2023-05-15T04:04:19;99955.17;;;8.36;59.73
74722;BME280;63470;49.826;6.740;2023-05-15T04:06:49;99957.12;;;8.37;59.61
74722;BME280;63470;49.826;6.740;2023-05-15T04:09:20;99958.00;;;8.39;59.50
74722;BME280;63470;49.826;6.740;2023-05-15T04:11:50;99957.59;;;8.40;59.47
74722;BME280;63470;49.826;6.740;2023-05-15T04:14:21;99960.08;;;8.38;59.49
74722;BME280;63470;49.826;6.740;2023-05-15T04:16:51;99966.19;;;8.35;59.66
74722;BME280;63470;49.826;6.740;2023-05-15T04:19:22;99970.30;;;8.35;59.70
74722;BME280;63470;49.826;6.740;2023-05-15T04:21:52;99963.98;;;8.41;59.65
74722;BME280;63470;49.826;6.740;2023-05-15T04:24:23;99964.98;;;8.48;59.55
74722;BME280;63470;49.826;6.740;2023-05-15T04:26:53;99960.32;;;8.51;59.54
74722;BME280;63470;49.826;6.740;2023-05-15T04:29:24;99963.34;;;8.54;59.57
74722;BME280;63470;49.826;6.740;2023-05-15T04:31:54;99955.89;;;8.57;59.56
74722;BME280;63470;49.826;6.740;2023-05-15T04:34:25;99961.48;;;8.63;59.54
74722;BME280;63470;49.826;6.740;2023-05-15T04:36:55;99960.48;;;8.71;59.45
74722;BME280;63470;49.826;6.740;2023-05-15T04:39:28;99961.78;;;8.79;59.35
74722;BME280;63470;49.826;6.740;2023-05-15T04:41:58;99961.17;;;8.87;59.25
74722;BME280;63470;49.826;6.740;2023-05-15T04:44:26;99955.42;;;8.95;59.19
74722;BME280;63470;49.826;6.740;2023-05-15T04:46:57;99954.62;;;9.04;59.13
74722;BME280;63470;49.826;6.740;2023-05-15T04:49:27;99958.55;;;9.15;59.09
74722;BME280;63470;49.826;6.740;2023-05-15T04:51:58;99961.53;;;9.43;58.72
74722;BME280;63470;49.826;6.740;2023-05-15T04:54:28;99964.81;;;9.57;58.46
74722;BME280;63470;49.826;6.740;2023-05-15T04:56:59;99966.20;;;9.64;58.42
74722;BME280;63470;49.826;6.740;2023-05-15T04:59:30;99966.90;;;9.76;58.33
74722;BME280;63470;49.826;6.740;2023-05-15T05:02:01;99969.41;;;9.88;58.30
74722;BME280;63470;49.826;6.740;2023-05-15T05:04:30;99968.03;;;9.97;58.34
74722;BME280;63470;49.826;6.740;2023-05-15T05:07:05;99972.50;;;10.04;58.41
74722;BME280;63470;49.826;6.740;2023-05-15T05:09:31;99970.70;;;10.11;58.37
74722;BME280;63470;49.826;6.740;2023-05-15T05:12:05;99968.81;;;10.19;58.29
74722;BME280;63470;49.826;6.740;2023-05-15T05:14:32;99969.78;;;10.29;58.31
74722;BME280;63470;49.826;6.740;2023-05-15T05:17:03;99969.71;;;10.45;58.33
74722;BME280;63470;49.826;6.740;2023-05-15T05:19:34;99967.90;;;10.57;58.29
74722;BME280;63470;49.826;6.740;2023-05-15T05:22:04;99965.45;;;10.87;57.78
74722;BME280;63470;49.826;6.740;2023-05-15T05:24:37;99971.23;;;11.43;56.99
74722;BME280;63470;49.826;6.740;2023-05-15T05:27:05;99974.50;;;11.90;56.78
74722;BME280;63470;49.826;6.740;2023-05-15T05:29:36;99973.25;;;12.33;56.76
74722;BME280;63470;49.826;6.740;2023-05-15T05:32:08;99970.67;;;12.66;56.73
74722;BME280;63470;49.826;6.740;2023-05-15T05:34:37;99967.88;;;12.48;57.59
74722;BME280;63470;49.826;6.740;2023-05-15T05:37:08;99972.03;;;12.29;58.47
74722;BME280;63470;49.826;6.740;2023-05-15T05:39:38;99967.98;;;12.67;58.29
74722;BME280;63470;49.826;6.740;2023-05-15T05:42:09;99969.09;;;13.30;57.79
74722;BME280;63470;49.826;6.740;2023-05-15T05:44:39;99966.13;;;13.90;57.43
74722;BME280;63470;49.826;6.740;2023-05-15T05:47:10;99968.09;;;14.30;57.17
74722;BME280;63470;49.826;6.740;2023-05-15T05:49:40;99966.34;;;14.74;56.82
74722;BME280;63470;49.826;6.740;2023-05-15T05:52:11;99962.38;;;15.10;56.64
74722;BME280;63470;49.826;6.740;2023-05-15T05:54:41;99957.56;;;15.42;56.48
74722;BME280;63470;49.826;6.740;2023-05-15T05:57:12;99954.67;;;15.80;56.36
74722;BME280;63470;49.826;6.740;2023-05-15T05:59:43;99956.87;;;16.07;56.29
74722;BME280;63470;49.826;6.740;2023-05-15T06:02:14;99956.69;;;16.42;55.98
74722;BME280;63470;49.826;6.740;2023-05-15T06:04:44;99951.04;;;16.64;55.85
74722;BME280;63470;49.826;6.740;2023-05-15T06:07:15;99953.96;;;16.67;56.03
74722;BME280;63470;49.826;6.740;2023-05-15T06:09:48;99956.50;;;16.42;56.26
74722;BME280;63470;49.826;6.740;2023-05-15T06:12:18;99949.05;;;15.89;56.91
74722;BME280;63470;49.826;6.740;2023-05-15T06:14:46;99947.75;;;15.46;58.32
74722;BME280;63470;49.826;6.740;2023-05-15T06:17:17;99956.27;;;15.31;59.82
74722;BME280;63470;49.826;6.740;2023-05-15T06:19:48;99952.69;;;15.30;60.19
74722;BME280;63470;49.826;6.740;2023-05-15T06:22:18;99948.89;;;15.38;59.14
74722;BME280;63470;49.826;6.740;2023-05-15T06:24:49;99947.91;;;15.57;58.44
74722;BME280;63470;49.826;6.740;2023-05-15T06:27:19;99946.66;;;15.45;58.59
74722;BME280;63470;49.826;6.740;2023-05-15T06:29:50;99948.02;;;15.46;58.61
74722;BME280;63470;49.826;6.740;2023-05-15T06:32:20;99951.25;;;15.68;57.97
74722;BME280;63470;49.826;6.740;2023-05-15T06:34:51;99947.62;;;16.09;57.06
74722;BME280;63470;49.826;6.740;2023-05-15T06:37:22;99951.84;;;16.46;56.16
74722;BME280;63470;49.826;6.740;2023-05-15T06:39:52;99950.83;;;16.56;55.99
74722;BME280;63470;49.826;6.740;2023-05-15T06:42:23;99952.12;;;16.49;56.29
74722;BME280;63470;49.826;6.740;2023-05-15T06:44:54;99950.19;;;16.42;56.64
74722;BME280;63470;49.826;6.740;2023-05-15T06:47:27;99951.66;;;16.76;56.10
74722;BME280;63470;49.826;6.740;2023-05-15T06:49:57;99951.20;;;17.07;55.30
74722;BME280;63470;49.826;6.740;2023-05-15T06:52:25;99954.27;;;17.15;55.29
74722;BME280;63470;49.826;6.740;2023-05-15T06:54:58;99955.00;;;17.08;55.83
74722;BME280;63470;49.826;6.740;2023-05-15T06:57:26;99952.16;;;17.11;56.06
74722;BME280;63470;49.826;6.740;2023-05-15T06:59:56;99952.34;;;17.35;55.64
74722;BME280;63470;49.826;6.740;2023-05-15T07:02:27;99956.80;;;17.41;55.53
74722;BME280;63470;49.826;6.740;2023-05-15T07:05:00;99949.28;;;17.51;55.53
74722;BME280;63470;49.826;6.740;2023-05-15T07:07:27;99950.09;;;17.68;55.41
74722;BME280;63470;49.826;6.740;2023-05-15T07:10:00;99945.06;;;17.98;55.07
74722;BME280;63470;49.826;6.740;2023-05-15T07:12:28;99942.98;;;18.78;53.47
74722;BME280;63470;49.826;6.740;2023-05-15T07:14:59;99937.69;;;19.12;52.75
74722;BME280;63470;49.826;6.740;2023-05-15T07:17:30;99938.20;;;19.05;53.25
74722;BME280;63470;49.826;6.740;2023-05-15T07:20:00;99935.06;;;19.24;53.55
74722;BME280;63470;49.826;6.740;2023-05-15T07:22:31;99936.12;;;19.34;53.98
74722;BME280;63470;49.826;6.740;2023-05-15T07:25:02;99931.41;;;19.22;54.30
74722;BME280;63470;49.826;6.740;2023-05-15T07:27:33;99934.40;;;19.43;54.18
74722;BME280;63470;49.826;6.740;2023-05-15T07:30:04;99932.27;;;19.76;54.13
74722;BME280;63470;49.826;6.740;2023-05-15T07:32:35;99936.58;;;19.81;54.26
74722;BME280;63470;49.826;6.740;2023-05-15T07:35:06;99937.72;;;19.76;54.44
74722;BME280;63470;49.826;6.740;2023-05-15T07:37:35;99940.48;;;19.70;54.64
74722;BME280;63470;49.826;6.740;2023-05-15T07:40:06;99937.84;;;19.51;54.97
74722;BME280;63470;49.826;6.740;2023-05-15T07:42:36;99938.48;;;19.33;55.37
74722;BME280;63470;49.826;6.740;2023-05-15T07:45:07;99942.32;;;19.34;55.29
74722;BME280;63470;49.826;6.740;2023-05-15T07:47:37;99938.00;;;19.53;55.16
74722;BME280;63470;49.826;6.740;2023-05-15T07:50:08;99935.05;;;19.84;54.99
74722;BME280;63470;49.826;6.740;2023-05-15T07:52:38;99936.77;;;19.99;54.83
74722;BME280;63470;49.826;6.740;2023-05-15T07:55:09;99934.16;;;20.03;54.83
74722;BME280;63470;49.826;6.740;2023-05-15T07:57:42;99934.08;;;20.12;54.82
74722;BME280;63470;49.826;6.740;2023-05-15T08:00:13;99936.88;;;20.21;54.78
74722;BME280;63470;49.826;6.740;2023-05-15T08:02:41;99935.22;;;20.22;54.93
74722;BME280;63470;49.826;6.740;2023-05-15T08:05:11;99936.63;;;20.59;54.48
74722;BME280;63470;49.826;6.740;2023-05-15T08:07:42;99929.52;;;21.93;53.37
74722;BME280;63470;49.826;6.740;2023-05-15T08:10:16;99929.34;;;22.64;52.70
74722;BME280;63470;49.826;6.740;2023-05-15T08:12:46;99924.09;;;23.61;52.04
74722;BME280;63470;49.826;6.740;2023-05-15T08:15:15;99919.24;;;24.43;51.54
74722;BME280;63470;49.826;6.740;2023-05-15T08:17:44;99922.03;;;24.62;51.91
74722;BME280;63470;49.826;6.740;2023-05-15T08:20:15;99921.84;;;24.50;52.18
74722;BME280;63470;49.826;6.740;2023-05-15T08:22:45;99927.30;;;23.82;53.43
74722;BME280;63470;49.826;6.740;2023-05-15T08:25:16;99930.27;;;23.29;54.23
74722;BME280;63470;49.826;6.740;2023-05-15T08:27:46;99930.30;;;22.85;54.84
74722;BME280;63470;49.826;6.740;2023-05-15T08:30:17;99931.30;;;22.56;55.10
74722;BME280;63470;49.826;6.740;2023-05-15T08:32:48;99930.62;;;22.32;55.43
74722;BME280;63470;49.826;6.740;2023-05-15T08:35:18;99924.60;;;22.26;55.42
74722;BME280;63470;49.826;6.740;2023-05-15T08:37:49;99924.38;;;22.39;55.20
74722;BME280;63470;49.826;6.740;2023-05-15T08:40:20;99924.11;;;22.30;55.33
74722;BME280;63470;49.826;6.740;2023-05-15T08:42:54;99917.54;;;22.09;55.54
74722;BME280;63470;49.826;6.740;2023-05-15T08:45:20;99922.66;;;21.86;55.73
74722;BME280;63470;49.826;6.740;2023-05-15T08:47:52;99921.02;;;21.73;55.93
74722;BME280;63470;49.826;6.740;2023-05-15T08:50:21;99915.48;;;21.76;55.90
74722;BME280;63470;49.826;6.740;2023-05-15T08:52:52;99917.17;;;21.79;55.77
74722;BME280;63470;49.826;6.740;2023-05-15T08:55:24;99911.25;;;21.85;55.65
74722;BME280;63470;49.826;6.740;2023-05-15T08:57:53;99906.80;;;22.04;55.41
74722;BME280;63470;49.826;6.740;2023-05-15T09:00:23;99904.95;;;22.06;55.50
74722;BME280;63470;49.826;6.740;2023-05-15T09:02:54;99906.09;;;22.13;55.60
74722;BME280;63470;49.826;6.740;2023-05-15T09:05:24;99903.24;;;22.41;55.15
74722;BME280;63470;49.826;6.740;2023-05-15T09:07:56;99902.67;;;22.54;54.96
74722;BME280;63470;49.826;6.740;2023-05-15T09:10:27;99906.11;;;22.57;54.89
74722;BME280;63470;49.826;6.740;2023-05-15T09:12:56;99905.30;;;22.66;54.83
74722;BME280;63470;49.826;6.740;2023-05-15T09:15:29;99899.56;;;22.64;55.08
74722;BME280;63470;49.826;6.740;2023-05-15T09:17:58;99893.25;;;22.91;54.80
74722;BME280;63470;49.826;6.740;2023-05-15T09:20:35;99893.23;;;22.97;54.85
74722;BME280;63470;49.826;6.740;2023-05-15T09:22:59;99888.64;;;23.09;54.67
74722;BME280;63470;49.826;6.740;2023-05-15T09:25:36;99883.70;;;23.17;54.70
74722;BME280;63470;49.826;6.740;2023-05-15T09:27:59;99885.08;;;23.42;54.45
74722;BME280;63470;49.826;6.740;2023-05-15T09:30:31;99884.98;;;23.34;54.60
74722;BME280;63470;49.826;6.740;2023-05-15T09:33:03;99881.07;;;23.38;54.69
74722;BME280;63470;49.826;6.740;2023-05-15T09:35:33;99873.34;;;23.62;54.48
74722;BME280;63470;49.826;6.740;2023-05-15T09:38:10;99869.16;;;24.67;53.36
74722;BME280;63470;49.826;6.740;2023-05-15T09:40:33;99859.64;;;26.11;52.13
74722;BME280;63470;49.826;6.740;2023-05-15T09:43:04;99866.14;;;26.75;51.70
74722;BME280;63470;49.826;6.740;2023-05-15T09:45:34;99857.88;;;27.22;51.55
74722;BME280;63470;49.826;6.740;2023-05-15T09:48:06;99848.72;;;27.85;51.12
74722;BME280;63470;49.826;6.740;2023-05-15T09:50:37;99842.22;;;28.63;50.65
74722;BME280;63470;49.826;6.740;2023-05-15T09:53:05;99836.35;;;28.15;51.86
74722;BME280;63470;49.826;6.740;2023-05-15T09:55:36;99839.08;;;27.15;53.65
74722;BME280;63470;49.826;6.740;2023-05-15T09:58:09;99838.95;;;26.25;55.15
74722;BME280;63470;49.826;6.740;2023-05-15T10:00:39;99835.62;;;25.97;55.60
74722;BME280;63470;49.826;6.740;2023-05-15T10:03:09;99831.30;;;26.62;54.36
74722;BME280;63470;49.826;6.740;2023-05-15T10:05:39;99830.47;;;26.03;55.11
74722;BME280;63470;49.826;6.740;2023-05-15T10:08:09;99831.16;;;25.87;55.36
74722;BME280;63470;49.826;6.740;2023-05-15T10:10:40;99829.52;;;26.66;54.11
74722;BME280;63470;49.826;6.740;2023-05-15T10:13:10;99826.61;;;27.51;52.95
74722;BME280;63470;49.826;6.740;2023-05-15T10:15:41;99820.63;;;28.15;52.21
74722;BME280;63470;49.826;6.740;2023-05-15T10:18:13;99816.30;;;27.87;52.88
74722;BME280;63470;49.826;6.740;2023-05-15T10:20:43;99820.78;;;27.24;53.97
74722;BME280;63470;49.826;6.740;2023-05-15T10:23:15;99818.72;;;26.40;55.20
74722;BME280;63470;49.826;6.740;2023-05-15T10:25:55;99817.28;;;25.59;56.16
74722;BME280;63470;49.826;6.740;2023-05-15T10:28:14;99813.84;;;24.48;57.65
74722;BME280;63470;49.826;6.740;2023-05-15T10:30:45;99818.41;;;23.83;58.31
74722;BME280;63470;49.826;6.740;2023-05-15T10:33:18;99818.57;;;23.28;58.75
74722;BME280;63470;49.826;6.740;2023-05-15T10:35:47;99824.82;;;22.76;58.97
74722;BME280;63470;49.826;6.740;2023-05-15T10:38:18;99825.97;;;22.23;59.26
74722;BME280;63470;49.826;6.740;2023-05-15T10:40:47;99819.11;;;21.78;59.51
74722;BME280;63470;49.826;6.740;2023-05-15T10:43:19;99818.97;;;21.42;59.46
74722;BME280;63470;49.826;6.740;2023-05-15T10:45:50;99815.05;;;20.99;59.63
74722;BME280;63470;49.826;6.740;2023-05-15T10:48:19;99823.17;;;20.66;59.62
74722;BME280;63470;49.826;6.740;2023-05-15T10:50:49;99830.14;;;20.32;59.43
74722;BME280;63470;49.826;6.740;2023-05-15T10:53:19;99837.11;;;19.67;59.57
74722;BME280;63470;49.826;6.740;2023-05-15T10:55:50;99852.64;;;18.58;60.67
74722;BME280;63470;49.826;6.740;2023-05-15T10:58:24;99862.95;;;17.77;61.27
74722;BME280;63470;49.826;6.740;2023-05-15T11:00:51;99866.82;;;17.16;61.59
74722;BME280;63470;49.826;6.740;2023-05-15T11:03:36;99871.39;;;16.72;61.75
74722;BME280;63470;49.826;6.740;2023-05-15T11:06:09;99873.80;;;16.47;61.75
74722;BME280;63470;49.826;6.740;2023-05-15T11:08:25;99884.35;;;16.30;61.63
74722;BME280;63470;49.826;6.740;2023-05-15T11:10:54;99891.30;;;16.20;61.57
74722;BME280;63470;49.826;6.740;2023-05-15T11:13:25;99894.23;;;16.14;61.39
74722;BME280;63470;49.826;6.740;2023-05-15T11:15:57;99893.34;;;16.09;61.15
74722;BME280;63470;49.826;6.740;2023-05-15T11:18:26;99894.78;;;16.05;60.93
74722;BME280;63470;49.826;6.740;2023-05-15T11:21:04;99896.97;;;16.00;60.75
74722;BME280;63470;49.826;6.740;2023-05-15T11:23:27;99904.72;;;15.96;60.56
74722;BME280;63470;49.826;6.740;2023-05-15T11:25:58;99905.34;;;15.95;60.33
74722;BME280;63470;49.826;6.740;2023-05-15T11:28:28;99906.30;;;15.90;60.12
74722;BME280;63470;49.826;6.740;2023-05-15T11:30:59;99899.39;;;15.77;60.13
74722;BME280;63470;49.826;6.740;2023-05-15T11:33:29;99896.58;;;15.69;60.12
74722;BME280;63470;49.826;6.740;2023-05-15T11:36:04;99894.59;;;15.71;60.04
74722;BME280;63470;49.826;6.740;2023-05-15T11:38:36;99898.45;;;15.72;59.85
74722;BME280;63470;49.826;6.740;2023-05-15T11:41:15;99899.08;;;15.73;59.61
74722;BME280;63470;49.826;6.740;2023-05-15T11:43:33;99894.58;;;15.73;59.45
74722;BME280;63470;49.826;6.740;2023-05-15T11:46:06;99887.67;;;15.71;59.29
74722;BME280;63470;49.826;6.740;2023-05-15T11:48:34;99883.38;;;15.70;59.09
74722;BME280;63470;49.826;6.740;2023-05-15T11:51:04;99885.30;;;15.66;59.05
74722;BME280;63470;49.826;6.740;2023-05-15T11:53:34;99887.26;;;15.67;58.99
74722;BME280;63470;49.826;6.740;2023-05-15T11:56:05;99887.61;;;15.76;58.87
74722;BME280;63470;49.826;6.740;2023-05-15T11:58:35;99889.31;;;15.89;58.61
74722;BME280;63470;49.826;6.740;2023-05-15T12:01:09;99891.73;;;15.98;58.44
74722;BME280;63470;49.826;6.740;2023-05-15T12:03:35;99893.02;;;16.07;58.38
74722;BME280;63470;49.826;6.740;2023-05-15T12:06:06;99891.42;;;16.20;58.15
74722;BME280;63470;49.826;6.740;2023-05-15T12:08:41;99888.88;;;16.29;57.98
74722;BME280;63470;49.826;6.740;2023-05-15T12:11:08;99884.82;;;16.35;57.87
74722;BME280;63470;49.826;6.740;2023-05-15T12:13:37;99889.80;;;16.50;57.68
74722;BME280;63470;49.826;6.740;2023-05-15T12:16:08;99888.73;;;16.62;57.59
74722;BME280;63470;49.826;6.740;2023-05-15T12:18:38;99889.03;;;16.72;57.58
74722;BME280;63470;49.826;6.740;2023-05-15T12:21:10;99877.30;;;16.78;57.56
74722;BME280;63470;49.826;6.740;2023-05-15T12:23:40;99865.23;;;16.92;57.25
74722;BME280;63470;49.826;6.740;2023-05-15T12:26:10;99863.45;;;16.99;57.18
74722;BME280;63470;49.826;6.740;2023-05-15T12:28:41;99853.28;;;17.01;57.12
74722;BME280;63470;49.826;6.740;2023-05-15T12:31:12;99856.73;;;17.05;57.09
74722;BME280;63470;49.826;6.740;2023-05-15T12:33:42;99851.86;;;17.06;57.05
74722;BME280;63470;49.826;6.740;2023-05-15T12:36:12;99844.09;;;17.00;57.16
74722;BME280;63470;49.826;6.740;2023-05-15T12:38:43;99844.20;;;16.98;57.26
74722;BME280;63470;49.826;6.740;2023-05-15T12:41:13;99840.41;;;17.02;57.27
74722;BME280;63470;49.826;6.740;2023-05-15T12:43:44;99837.67;;;17.12;57.28
74722;BME280;63470;49.826;6.740;2023-05-15T12:46:15;99832.14;;;17.27;57.25
74722;BME280;63470;49.826;6.740;2023-05-15T12:48:46;99828.03;;;17.44;57.10
74722;BME280;63470;49.826;6.740;2023-05-15T12:51:16;99828.52;;;17.60;57.02
74722;BME280;63470;49.826;6.740;2023-05-15T12:53:47;99825.86;;;17.68;56.96
74722;BME280;63470;49.826;6.740;2023-05-15T12:56:17;99822.22;;;17.75;56.97
74722;BME280;63470;49.826;6.740;2023-05-15T12:58:48;99824.16;;;17.78;57.06
74722;BME280;63470;49.826;6.740;2023-05-15T13:01:18;99823.16;;;17.75;57.25
74722;BME280;63470;49.826;6.740;2023-05-15T13:03:49;99820.80;;;17.78;57.29
74722;BME280;63470;49.826;6.740;2023-05-15T13:06:21;99820.17;;;17.84;57.27
74722;BME280;63470;49.826;6.740;2023-05-15T13:08:50;99812.44;;;17.94;57.19
74722;BME280;63470;49.826;6.740;2023-05-15T13:11:20;99811.72;;;18.06;57.11
74722;BME280;63470;49.826;6.740;2023-05-15T13:13:51;99812.92;;;18.15;56.99
74722;BME280;63470;49.826;6.740;2023-05-15T13:16:23;99811.53;;;18.14;57.02
74722;BME280;63470;49.826;6.740;2023-05-15T13:18:52;99804.56;;;18.28;56.94
74722;BME280;63470;49.826;6.740;2023-05-15T13:21:22;99807.53;;;18.42;56.78
74722;BME280;63470;49.826;6.740;2023-05-15T13:23:52;99808.96;;;18.44;56.74
74722;BME280;63470;49.826;6.740;2023-05-15T13:26:23;99806.86;;;18.52;56.75
74722;BME280;63470;49.826;6.740;2023-05-15T13:28:54;99800.38;;;18.70;56.70